26 de septiembre de 2022

Hora Código Tiempo Temp. Visibilidad Cielo nuboso Viento METAR/SPECI
14:00
M
20 °C 10 km+ 2.900 ft 270° 270° 7 kt METAR LFBC 261200Z AUTO 27007KT 230V310 9999 BKN029 BKN041 BKN062 20/12 Q1015 BECMG 27015G25KT
13:30
M
20 °C 10 km+ 2.800 ft 270° 270° 8 kt METAR LFBC 261130Z AUTO 27008KT 210V300 9999 BKN028 BKN034 BKN058 20/12 Q1015 BECMG 27015G25KT
13:00
V
20 °C 10 km+ 3.500 ft 260° 260° 9 kt METAR LFBC 261100Z AUTO 26009KT 220V300 9999 SCT030 BKN035 BKN043 20/12 Q1015 BECMG 27015G25KT
12:30
V
21 °C 10 km+ 7.400 ft 250° 250° 8 kt METAR LFBC 261030Z AUTO 25008KT 200V320 9999 FEW033 SCT040 BKN074 21/11 Q1015 BECMG 27015G25KT
12:00
V
19 °C 10 km+ 17.000 ft 210° 210° 5 kt METAR LFBC 261000Z AUTO 21005KT 180V260 9999 FEW041 BKN170 19/11 Q1015 BECMG 27015G25KT
11:30
V
18 °C 10 km+ - 210° 210° 5 kt METAR LFBC 260930Z AUTO 21005KT 160V240 CAVOK 18/12 Q1015 BECMG 27015G25KT
11:00
V
16 °C 10 km+ - 190° 190° 4 kt METAR LFBC 260900Z AUTO 19004KT 160V220 CAVOK 16/12 Q1015 BECMG 27015G25KT
10:30
V
14 °C 10 km+ - 190° 190° 4 kt METAR LFBC 260830Z AUTO 19004KT 160V220 9999 FEW047 SCT170 14/12 Q1015 NOSIG
10:00
V
13 °C 10 km+ 8.400 ft 160° 160° 3 kt METAR LFBC 260800Z AUTO 16003KT 9999 SCT048 BKN084 BKN160 13/12 Q1015 NOSIG
09:30
V
10 °C 10 km+ - 150° 150° 3 kt METAR LFBC 260730Z AUTO 15003KT CAVOK 10/10 Q1015 NOSIG
09:00
V
8 °C 10 km+ - Var 000° 0 kt METAR LFBC 260700Z AUTO 00000KT CAVOK 08/08 Q1015 NOSIG
08:30
L
5 °C 1,4 km - Var 000° 0 kt METAR LFBC 260630Z AUTO 00000KT 7000 1400 R24/P2000 VV/// 05/05 Q1015 BECMG NSC
08:00
L
5 °C 500 m - Var 000° 0 kt METAR LFBC 260600Z AUTO 00000KT 0550 0500 R24/0900U FG VV/// 05/05 Q1015 BECMG CAVOK
07:30
L
6 °C 550 m - Var 000° 0 kt METAR LFBC 260530Z AUTO 00000KT 7000 0550 R24/0650D BCFG VV/// 06/05 Q1015 TEMPO 0500 FG BECMG NSC
07:00
L
6 °C 1 km - Var 000° 0 kt METAR LFBC 260500Z AUTO 00000KT 1300 1000 R24/1100D BR NSC 06/05 Q1015 TEMPO 0500 FG BKN001
06:30
V
6 °C 10 km+ - 360° 360° 1 kt METAR LFBC 260430Z AUTO 36001KT 9999 FEW046 06/05 Q1015 TEMPO 0500 FG BKN001
06:00
L
7 °C 6 km - 020° 020° 3 kt METAR LFBC 260400Z AUTO 02003KT 6000 VV/// 07/07 Q1016 TEMPO 0900 FG BKN005
05:30
V
7 °C 10 km+ - Var 000° 0 kt METAR LFBC 260330Z AUTO 00000KT CAVOK 07/06 Q1016 TEMPO 0900 FG BKN005
05:00
V
6 °C 10 km+ - Var Var 1 kt METAR LFBC 260300Z AUTO VRB01KT CAVOK 06/05 Q1016 TEMPO 0900 FG BKN005
04:30
V
8 °C 10 km+ - Var 000° 0 kt METAR LFBC 260230Z AUTO 00000KT CAVOK 08/07 Q1015 TEMPO 0900 FG BKN005
04:00
V
7 °C 10 km+ - Var 000° 0 kt METAR LFBC 260200Z AUTO 00000KT CAVOK 07/06 Q1016 TEMPO 0900 FG BKN005
03:30
V
6 °C 10 km+ - Var 000° 0 kt METAR LFBC 260130Z AUTO 00000KT CAVOK 06/05 Q1016 TEMPO 0900 FG BKN005
03:00
V
9 °C 10 km+ - Var 000° 0 kt METAR LFBC 260100Z AUTO 00000KT CAVOK 09/08 Q1016 TEMPO 0900 FG BKN005
02:30
V
9 °C 10 km+ - Var Var 1 kt METAR LFBC 260030Z AUTO VRB01KT CAVOK 09/08 Q1016 TEMPO 0900 FG BKN005
02:00
V
8 °C 10 km+ - 340° 340° 1 kt METAR LFBC 260000Z AUTO 34001KT CAVOK 08/08 Q1016 TEMPO 0900 FG BKN005
01:30
V
8 °C 10 km+ - Var 000° 0 kt METAR LFBC 252330Z AUTO 00000KT CAVOK 08/07 Q1016 TEMPO 0900 FG BKN005
01:00
V
8 °C 10 km+ - Var 000° 0 kt METAR LFBC 252300Z AUTO 00000KT CAVOK 08/06 Q1017 TEMPO 0900 FG BKN005
00:30
V
9 °C 10 km+ - Var 000° 0 kt METAR LFBC 252230Z AUTO 00000KT CAVOK 09/07 Q1017 TEMPO 0900 FG BKN005
00:00
V
10 °C 10 km+ - Var 000° 0 kt METAR LFBC 252200Z AUTO 00000KT CAVOK 10/08 Q1017 NOSIG

25 de septiembre de 2022

Hora Código Tiempo Temp. Visibilidad Cielo nuboso Viento METAR/SPECI
23:30
V
11 °C 10 km+ - 340° 340° 2 kt METAR LFBC 252130Z AUTO 34002KT CAVOK 11/09 Q1017 NOSIG
23:00
V
12 °C 10 km+ - Var 000° 0 kt METAR LFBC 252100Z AUTO 00000KT CAVOK 12/09 Q1017 NOSIG
22:30
V
12 °C 10 km+ - Var 000° 0 kt METAR LFBC 252030Z AUTO 00000KT CAVOK 12/10 Q1017 NOSIG
22:00
V
13 °C 10 km+ - 310° 310° 1 kt METAR LFBC 252000Z AUTO 31001KT CAVOK 13/10 Q1017 NOSIG
21:30
V
14 °C 10 km+ - 320° 320° 2 kt METAR LFBC 251930Z AUTO 32002KT CAVOK 14/10 Q1017 NOSIG
21:00
V
15 °C 10 km+ - 310° 310° 2 kt METAR LFBC 251900Z AUTO 31002KT CAVOK 15/10 Q1017 NOSIG
20:30
V
15 °C 10 km+ - 320° 320° 2 kt METAR LFBC 251830Z AUTO 32002KT CAVOK 15/10 Q1016 NOSIG
20:00
V
16 °C 10 km+ - 320° 320° 4 kt METAR LFBC 251800Z AUTO 32004KT CAVOK 16/10 Q1016 NOSIG
19:30
V
17 °C 10 km+ - 330° 330° 5 kt METAR LFBC 251730Z AUTO 33005KT 290V360 CAVOK 17/10 Q1016 NOSIG
19:00
V
18 °C 10 km+ - 310° 310° 7 kt METAR LFBC 251700Z AUTO 31007KT 270V330 CAVOK 18/11 Q1016 NOSIG
18:30
V
18 °C 10 km+ - 320° 320° 9 kt METAR LFBC 251630Z AUTO 32009KT CAVOK 18/09 Q1015 NOSIG
18:00
V
19 °C 10 km+ - 310° 310° 8 kt METAR LFBC 251600Z AUTO 31008KT 280V340 CAVOK 19/09 Q1016 NOSIG
17:30
V
20 °C 10 km+ - 310° 310° 9 kt METAR LFBC 251530Z AUTO 31009KT CAVOK 20/09 Q1016 NOSIG
17:00
V
20 °C 10 km+ - 300° 300° 8 kt METAR LFBC 251500Z AUTO 30008KT 260V350 CAVOK 20/08 Q1016 NOSIG
16:30
V
20 °C 10 km+ - 310° 310° 8 kt METAR LFBC 251430Z AUTO 31008KT 270V340 CAVOK 20/08 Q1016 NOSIG
16:00
V
20 °C 10 km+ - 290° 290° 8 kt METAR LFBC 251400Z AUTO 29008KT 240V340 CAVOK 20/09 Q1016 NOSIG
15:30
V
20 °C 10 km+ - 290° 290° 7 kt METAR LFBC 251330Z AUTO 29007KT 240V330 CAVOK 20/09 Q1016 NOSIG
15:00
V
21 °C 10 km+ - 280° 280° 8 kt METAR LFBC 251300Z AUTO 28008KT 240V340 CAVOK 21/09 Q1016 NOSIG
14:30
V
20 °C 10 km+ - 300° 300° 8 kt METAR LFBC 251230Z AUTO 30008KT 250V350 CAVOK 20/09 Q1016 NOSIG
14:00
V
20 °C 10 km+ - 290° 290° 7 kt METAR LFBC 251200Z AUTO 29007KT 250V320 9999 FEW046/// //////TCU 20/08 Q1016 BECMG BKN040
13:30
V
20 °C 10 km+ - 300° 300° 6 kt METAR LFBC 251130Z AUTO 30006KT 260V330 9999 FEW042/// //////CB 20/09 Q1016 BECMG BKN040
13:00
V
20 °C 10 km+ - Var Var 2 kt METAR LFBC 251100Z AUTO VRB02KT 9999 SCT043 20/09 Q1016 NOSIG
12:30
V
19 °C 10 km+ - Var Var 3 kt METAR LFBC 251030Z AUTO VRB03KT 9999 SCT033 SCT042 19/10 Q1016 NOSIG
12:00
V
18 °C 10 km+ - Var Var 4 kt METAR LFBC 251000Z AUTO VRB04KT 9999 FEW034 SCT056 18/11 Q1016 NOSIG
11:30
V
18 °C 10 km+ - 010° 010° 3 kt METAR LFBC 250930Z AUTO 01003KT 290V060 9999 SCT043 18/10 Q1016 NOSIG
11:00
V
18 °C 10 km+ - Var Var 2 kt METAR LFBC 250900Z AUTO VRB02KT CAVOK 18/10 Q1016 NOSIG
10:30
V
16 °C 10 km+ - Var Var 3 kt METAR LFBC 250830Z AUTO VRB03KT 9999 //////TCU 16/11 Q1016 BECMG BKN040
10:00
V
15 °C 10 km+ - Var Var 2 kt METAR LFBC 250800Z AUTO VRB02KT 9999 //////TCU 15/11 Q1016 BECMG NSC
09:30
V
13 °C 10 km+ - Var Var 1 kt METAR LFBC 250730Z AUTO VRB01KT 9999 FEW046/// //////TCU 13/12 Q1016 BECMG NSC
09:00
V
9 °C 10 km+ - Var 000° 0 kt METAR LFBC 250700Z AUTO 00000KT CAVOK 09/09 Q1016 NOSIG
08:30
V
7 °C 10 km+ - Var 000° 0 kt METAR LFBC 250630Z AUTO 00000KT CAVOK 07/07 Q1016 NOSIG
08:00
L
7 °C 400 m - 080° 080° 4 kt METAR LFBC 250600Z AUTO 08004KT 5000 0400 R24/P2000 BCFG VV/// 07/07 Q1015 BECMG NSC
07:30
V
8 °C 10 km+ - 010° 010° 2 kt METAR LFBC 250530Z AUTO 01002KT CAVOK 08/07 Q1015 TEMPO 3000 BR
07:00
V
9 °C 10 km+ - Var 000° 0 kt METAR LFBC 250500Z AUTO 00000KT CAVOK 09/08 Q1015 TEMPO 3000 BR
06:30
V
9 °C 10 km+ - 010° 010° 2 kt METAR LFBC 250430Z AUTO 01002KT CAVOK 09/08 Q1015 TEMPO 3000 BR
06:00
V
9 °C 10 km+ - 090° 090° 2 kt METAR LFBC 250400Z AUTO 09002KT CAVOK 09/07 Q1015 TEMPO 3000 BR
05:30
V
10 °C 10 km+ - 020° 020° 3 kt METAR LFBC 250330Z AUTO 02003KT 9999 ///TCU 10/09 Q1015 TEMPO 3000 BR BECMG NSC
05:00
V
9 °C 10 km+ - 350° 350° 1 kt METAR LFBC 250300Z AUTO 35001KT 9999 //////CB 09/08 Q1015 TEMPO 3000 BR BECMG NSC
04:30
V
9 °C 10 km+ - Var 000° 0 kt METAR LFBC 250230Z AUTO 00000KT 9999 //////CB 09/08 Q1015 TEMPO 3000 BR BECMG NSC
04:00
V
9 °C 10 km+ - Var 000° 0 kt METAR LFBC 250200Z AUTO 00000KT CAVOK 09/08 Q1015 TEMPO 3000 BR
03:30
V
8 °C 10 km+ - Var 000° 0 kt METAR LFBC 250130Z AUTO 00000KT CAVOK 08/06 Q1015 TEMPO 3000 BR
03:00
V
10 °C 10 km+ - 350° 350° 2 kt METAR LFBC 250100Z AUTO 35002KT CAVOK 10/09 Q1015 TEMPO 3000 BR
02:30
V
9 °C 10 km+ - Var Var 3 kt METAR LFBC 250030Z AUTO VRB03KT 9999 ///CB 09/07 Q1015 TEMPO 3000 BR BECMG NSC
02:00
V
11 °C 10 km+ - 330° 330° 3 kt METAR LFBC 250000Z AUTO 33003KT 9999 //////CB 11/10 Q1015 TEMPO 4000 SHRA BECMG NSC
01:30
V
11 °C 10 km+ - Var 000° 0 kt METAR LFBC 242330Z AUTO 00000KT 9999 //////CB 11/09 Q1015 TEMPO 4000 SHRA BECMG NSC
01:00
V
10 °C 10 km+ - 270° 270° 2 kt METAR LFBC 242300Z AUTO 27002KT CAVOK 10/08 Q1016 TEMPO 4000 SHRA SCT025TCU
00:30
V
11 °C 10 km+ 22.000 ft Var 000° 0 kt METAR LFBC 242230Z AUTO 00000KT 9999 FEW034 BKN220 11/08 Q1016 TEMPO 4000 SHRA SCT025TCU
00:00
V
12 °C 10 km+ 21.000 ft Var 000° 0 kt METAR LFBC 242200Z AUTO 00000KT 9999 FEW034 BKN210 OVC230 12/09 Q1016 TEMPO 4000 SHRA SCT025TCU

24 de septiembre de 2022

Hora Código Tiempo Temp. Visibilidad Cielo nuboso Viento METAR/SPECI
23:30
V
13 °C 10 km+ - 320° 320° 2 kt METAR LFBC 242130Z AUTO 32002KT 9999 FEW033 13/09 Q1016 TEMPO 4000 SHRA SCT025TCU
23:00
V
14 °C 10 km+ - 310° 310° 3 kt METAR LFBC 242100Z AUTO 31003KT CAVOK 14/10 Q1016 TEMPO 4000 SHRA SCT025TCU
22:30
V
15 °C 10 km+ - 340° 340° 4 kt METAR LFBC 242030Z AUTO 34004KT CAVOK 15/10 Q1016 TEMPO 4000 SHRA SCT025TCU
22:00
V
16 °C 10 km+ - 330° 330° 6 kt METAR LFBC 242000Z AUTO 33006KT CAVOK 16/10 Q1015 TEMPO 4000 SHRA SCT025TCU
21:30
V
16 °C 10 km+ 22.000 ft 330° 330° 5 kt METAR LFBC 241930Z AUTO 33005KT 9999 FEW032 BKN220 16/11 Q1015 TEMPO 4000 SHRA SCT025TCU
21:00
V
16 °C 10 km+ - 330° 330° 5 kt METAR LFBC 241900Z AUTO 33005KT CAVOK 16/11 Q1015 TEMPO 4000 SHRA SCT025TCU
20:30
V
17 °C 10 km+ 19.000 ft 330° 330° 5 kt METAR LFBC 241830Z AUTO 33005KT 9999 FEW033 BKN190 OVC210 17/11 Q1015 TEMPO 4000 SHRA SCT025TCU
20:00
V
17 °C 10 km+ 18.000 ft 320° 320° 6 kt METAR LFBC 241800Z AUTO 32006KT 9999 FEW030 BKN180 BKN210 17/11 Q1015 TEMPO 4000 SHRA SCT025TCU
19:30
V
18 °C 10 km+ 17.000 ft 320° 320° 8 kt METAR LFBC 241730Z AUTO 32008KT 290V350 9999 FEW029 BKN170 BKN200 18/12 Q1015 TEMPO 4000 SHRA SCT025TCU
19:00
V
18 °C 10 km+ - 330° 330° 7 kt METAR LFBC 241700Z AUTO 33007KT 300V360 CAVOK 18/12 Q1014 TEMPO 4000 SHRA SCT025TCU
18:30
V
18 °C 10 km+ 9.400 ft 320° 320° 8 kt METAR LFBC 241630Z AUTO 32008KT 290V360 9999 FEW022 BKN094 BKN110 18/12 Q1014 TEMPO 4000 SHRA SCT025TCU
18:00
V
19 °C 10 km+ 8.400 ft 310° 310° 7 kt METAR LFBC 241600Z AUTO 31007KT 280V340 9999 FEW022/// OVC084/// //////CB 19/13 Q1014 TEMPO 4000 SHRA
17:30
V
19 °C 10 km+ - 310° 310° 11 kt METAR LFBC 241530Z AUTO 31011KT 270V350 CAVOK 19/11 Q1014 TEMPO 4000 SHRA SCT025TCU
17:00
V
20 °C 10 km+ - 300° 300° 10 kt METAR LFBC 241500Z AUTO 30010KT 270V330 9999 //////TCU 20/12 Q1014 TEMPO 4000 SHRA
16:30
V
19 °C 10 km+ - 300° 300° 9 kt METAR LFBC 241430Z AUTO 30009KT 270V330 9999 //////CB 19/11 Q1014 TEMPO 4000 SHRA
16:00
V
18 °C 10 km+ 8.400 ft 300° 300° 10 kt METAR LFBC 241400Z AUTO 30010KT 270V330 9999 -RA FEW025/// SCT070/// BKN084/// //////CB 18/13 Q1014 TEMPO 4000 SHRA
15:30
V
19 °C 10 km+ 19.000 ft 290° 290° 10 kt METAR LFBC 241330Z AUTO 29010KT 240V330 9999 SCT028/// OVC190/// //////CB 19/12 Q1014 TEMPO 4000 SHRA
15:00
V
19 °C 10 km+ 18.000 ft 300° 300° 11 kt METAR LFBC 241300Z AUTO 30011KT 270V350 9999 SCT027 SCT040 BKN180 19/12 Q1014 TEMPO 4000 SHRA SCT025TCU
14:30
V
20 °C 10 km+ - 310° 310° 12 kt METAR LFBC 241230Z AUTO 31012KT 270V340 9999 FEW029 SCT190 20/12 Q1015 TEMPO 4000 SHRA SCT025TCU
14:00
V
20 °C 10 km+ - 310° 310° 10 kt METAR LFBC 241200Z AUTO 31010KT 280V340 9999 FEW027 SCT070 20/11 Q1015 TEMPO 4000 SHRA SCT025TCU
Datos más antiguos

Nosotros y terceros seguimos tu comportamiento en Internet en nuestro sitio web con cookies. Si continúas, asumimos que estás de acuerdo con nuestra política de cookies. Más información